sensor_id;sensor_type;location;lat;lon;timestamp;P1;durP1;ratioP1;P2;durP2;ratioP2
8514;SDS011;4295;51.024;7.000;2022-10-16T00:00:31;75.90;;;7.30;;
8514;SDS011;4295;51.024;7.000;2022-10-16T00:02:57;78.63;;;7.70;;
8514;SDS011;4295;51.024;7.000;2022-10-16T00:05:22;76.10;;;7.80;;
8514;SDS011;4295;51.024;7.000;2022-10-16T00:07:48;79.03;;;8.17;;
8514;SDS011;4295;51.024;7.000;2022-10-16T00:10:13;76.07;;;6.97;;
8514;SDS011;4295;51.024;7.000;2022-10-16T00:12:39;77.50;;;7.43;;
8514;SDS011;4295;51.024;7.000;2022-10-16T00:15:04;75.77;;;7.10;;
8514;SDS011;4295;51.024;7.000;2022-10-16T00:17:31;75.67;;;7.00;;
8514;SDS011;4295;51.024;7.000;2022-10-16T00:19:56;77.97;;;6.43;;
8514;SDS011;4295;51.024;7.000;2022-10-16T00:22:22;83.47;;;6.77;;
8514;SDS011;4295;51.024;7.000;2022-10-16T00:24:47;74.67;;;6.53;;
8514;SDS011;4295;51.024;7.000;2022-10-16T00:27:13;77.00;;;7.27;;
8514;SDS011;4295;51.024;7.000;2022-10-16T00:29:38;73.97;;;6.67;;
8514;SDS011;4295;51.024;7.000;2022-10-16T00:32:03;76.40;;;6.80;;
8514;SDS011;4295;51.024;7.000;2022-10-16T00:34:29;79.60;;;6.20;;
8514;SDS011;4295;51.024;7.000;2022-10-16T00:36:54;76.80;;;6.80;;
8514;SDS011;4295;51.024;7.000;2022-10-16T00:39:19;75.77;;;8.10;;
8514;SDS011;4295;51.024;7.000;2022-10-16T00:41:44;75.80;;;6.60;;
8514;SDS011;4295;51.024;7.000;2022-10-16T00:47:08;74.50;;;6.80;;
8514;SDS011;4295;51.024;7.000;2022-10-16T00:49:35;73.30;;;6.43;;
8514;SDS011;4295;51.024;7.000;2022-10-16T00:52:00;75.20;;;6.90;;
8514;SDS011;4295;51.024;7.000;2022-10-16T00:54:27;76.90;;;6.77;;
8514;SDS011;4295;51.024;7.000;2022-10-16T00:56:54;82.70;;;7.47;;
8514;SDS011;4295;51.024;7.000;2022-10-16T01:02:04;73.53;;;6.23;;
8514;SDS011;4295;51.024;7.000;2022-10-16T01:04:32;73.87;;;6.63;;
8514;SDS011;4295;51.024;7.000;2022-10-16T01:07:15;75.07;;;7.20;;
8514;SDS011;4295;51.024;7.000;2022-10-16T01:20:35;83.20;;;6.80;;
8514;SDS011;4295;51.024;7.000;2022-10-16T01:31:18;73.40;;;6.80;;
8514;SDS011;4295;51.024;7.000;2022-10-16T01:33:48;75.20;;;7.07;;
8514;SDS011;4295;51.024;7.000;2022-10-16T01:36:21;73.53;;;6.30;;
8514;SDS011;4295;51.024;7.000;2022-10-16T01:38:52;75.03;;;6.90;;
8514;SDS011;4295;51.024;7.000;2022-10-16T01:41:22;73.40;;;6.93;;
8514;SDS011;4295;51.024;7.000;2022-10-16T01:44:01;73.17;;;5.97;;
8514;SDS011;4295;51.024;7.000;2022-10-16T01:46:48;75.37;;;6.23;;
8514;SDS011;4295;51.024;7.000;2022-10-16T01:49:16;75.80;;;6.67;;
8514;SDS011;4295;51.024;7.000;2022-10-16T01:51:43;73.30;;;6.60;;
8514;SDS011;4295;51.024;7.000;2022-10-16T01:54:11;76.07;;;6.37;;
8514;SDS011;4295;51.024;7.000;2022-10-16T01:56:39;74.70;;;7.97;;
8514;SDS011;4295;51.024;7.000;2022-10-16T01:59:09;75.50;;;6.80;;
8514;SDS011;4295;51.024;7.000;2022-10-16T02:01:38;76.33;;;7.27;;
8514;SDS011;4295;51.024;7.000;2022-10-16T02:04:51;73.90;;;6.73;;
8514;SDS011;4295;51.024;7.000;2022-10-16T02:07:02;82.43;;;6.40;;
8514;SDS011;4295;51.024;7.000;2022-10-16T02:09:27;75.10;;;6.70;;
8514;SDS011;4295;51.024;7.000;2022-10-16T02:11:56;74.80;;;7.50;;
8514;SDS011;4295;51.024;7.000;2022-10-16T02:14:27;76.37;;;6.83;;
8514;SDS011;4295;51.024;7.000;2022-10-16T02:16:53;78.70;;;7.10;;
8514;SDS011;4295;51.024;7.000;2022-10-16T02:19:19;75.40;;;7.00;;
8514;SDS011;4295;51.024;7.000;2022-10-16T02:21:48;74.07;;;6.50;;
8514;SDS011;4295;51.024;7.000;2022-10-16T02:24:20;74.03;;;7.00;;
8514;SDS011;4295;51.024;7.000;2022-10-16T02:29:42;75.17;;;7.10;;
8514;SDS011;4295;51.024;7.000;2022-10-16T02:32:15;73.20;;;6.10;;
8514;SDS011;4295;51.024;7.000;2022-10-16T02:34:43;73.63;;;6.67;;
8514;SDS011;4295;51.024;7.000;2022-10-16T02:37:10;73.80;;;6.00;;
8514;SDS011;4295;51.024;7.000;2022-10-16T02:39:37;74.97;;;6.87;;
8514;SDS011;4295;51.024;7.000;2022-10-16T02:42:04;74.77;;;6.40;;
8514;SDS011;4295;51.024;7.000;2022-10-16T02:44:29;73.60;;;6.40;;
8514;SDS011;4295;51.024;7.000;2022-10-16T02:46:55;76.17;;;6.53;;
8514;SDS011;4295;51.024;7.000;2022-10-16T02:49:20;74.40;;;6.67;;
8514;SDS011;4295;51.024;7.000;2022-10-16T02:51:45;75.17;;;6.70;;
8514;SDS011;4295;51.024;7.000;2022-10-16T02:54:11;76.27;;;6.53;;
8514;SDS011;4295;51.024;7.000;2022-10-16T02:56:36;75.93;;;6.20;;
8514;SDS011;4295;51.024;7.000;2022-10-16T02:59:01;75.70;;;7.00;;
8514;SDS011;4295;51.024;7.000;2022-10-16T03:01:27;75.03;;;6.13;;
8514;SDS011;4295;51.024;7.000;2022-10-16T03:03:52;73.10;;;5.93;;
8514;SDS011;4295;51.024;7.000;2022-10-16T03:06:17;75.10;;;6.53;;
8514;SDS011;4295;51.024;7.000;2022-10-16T03:08:43;73.57;;;6.13;;
8514;SDS011;4295;51.024;7.000;2022-10-16T03:11:08;73.37;;;6.17;;
8514;SDS011;4295;51.024;7.000;2022-10-16T03:13:33;72.60;;;5.93;;
8514;SDS011;4295;51.024;7.000;2022-10-16T03:15:59;72.67;;;5.80;;
8514;SDS011;4295;51.024;7.000;2022-10-16T03:18:24;72.27;;;6.00;;
8514;SDS011;4295;51.024;7.000;2022-10-16T03:20:50;72.40;;;5.60;;
8514;SDS011;4295;51.024;7.000;2022-10-16T03:23:15;73.70;;;6.00;;
8514;SDS011;4295;51.024;7.000;2022-10-16T03:25:40;75.20;;;6.40;;
8514;SDS011;4295;51.024;7.000;2022-10-16T03:28:05;72.80;;;6.27;;
8514;SDS011;4295;51.024;7.000;2022-10-16T03:30:31;72.67;;;6.37;;
8514;SDS011;4295;51.024;7.000;2022-10-16T03:32:57;75.90;;;5.87;;
8514;SDS011;4295;51.024;7.000;2022-10-16T03:35:22;72.77;;;6.13;;
8514;SDS011;4295;51.024;7.000;2022-10-16T03:37:49;74.97;;;6.50;;
8514;SDS011;4295;51.024;7.000;2022-10-16T03:40:15;76.40;;;6.83;;
8514;SDS011;4295;51.024;7.000;2022-10-16T03:42:42;74.80;;;6.40;;
8514;SDS011;4295;51.024;7.000;2022-10-16T03:45:07;76.50;;;6.90;;
8514;SDS011;4295;51.024;7.000;2022-10-16T03:47:33;76.53;;;6.83;;
8514;SDS011;4295;51.024;7.000;2022-10-16T03:49:59;74.27;;;6.67;;
8514;SDS011;4295;51.024;7.000;2022-10-16T03:52:25;75.37;;;7.07;;
8514;SDS011;4295;51.024;7.000;2022-10-16T03:54:51;73.00;;;6.40;;
8514;SDS011;4295;51.024;7.000;2022-10-16T03:57:16;75.60;;;7.23;;
8514;SDS011;4295;51.024;7.000;2022-10-16T03:59:42;73.27;;;6.57;;
8514;SDS011;4295;51.024;7.000;2022-10-16T04:02:07;75.80;;;6.27;;
8514;SDS011;4295;51.024;7.000;2022-10-16T04:04:33;79.93;;;6.63;;
8514;SDS011;4295;51.024;7.000;2022-10-16T04:06:58;76.27;;;6.83;;
8514;SDS011;4295;51.024;7.000;2022-10-16T04:09:23;73.30;;;6.60;;
8514;SDS011;4295;51.024;7.000;2022-10-16T04:11:49;78.20;;;7.33;;
8514;SDS011;4295;51.024;7.000;2022-10-16T04:14:14;75.20;;;7.13;;
8514;SDS011;4295;51.024;7.000;2022-10-16T04:16:39;74.77;;;6.90;;
8514;SDS011;4295;51.024;7.000;2022-10-16T04:19:05;74.73;;;6.87;;
8514;SDS011;4295;51.024;7.000;2022-10-16T04:21:30;74.47;;;6.90;;
8514;SDS011;4295;51.024;7.000;2022-10-16T04:23:55;74.37;;;6.90;;
8514;SDS011;4295;51.024;7.000;2022-10-16T04:26:20;77.00;;;6.97;;
8514;SDS011;4295;51.024;7.000;2022-10-16T04:28:46;76.30;;;6.43;;
8514;SDS011;4295;51.024;7.000;2022-10-16T04:31:11;77.60;;;6.60;;
8514;SDS011;4295;51.024;7.000;2022-10-16T04:33:36;76.30;;;6.13;;
8514;SDS011;4295;51.024;7.000;2022-10-16T04:36:02;75.57;;;7.40;;
8514;SDS011;4295;51.024;7.000;2022-10-16T04:38:28;75.07;;;6.73;;
8514;SDS011;4295;51.024;7.000;2022-10-16T04:40:54;73.80;;;6.70;;
8514;SDS011;4295;51.024;7.000;2022-10-16T04:43:19;73.50;;;6.23;;
8514;SDS011;4295;51.024;7.000;2022-10-16T04:45:46;74.50;;;6.07;;
8514;SDS011;4295;51.024;7.000;2022-10-16T04:48:11;77.73;;;6.87;;
8514;SDS011;4295;51.024;7.000;2022-10-16T04:50:36;77.73;;;6.80;;
8514;SDS011;4295;51.024;7.000;2022-10-16T04:53:02;76.70;;;6.37;;
8514;SDS011;4295;51.024;7.000;2022-10-16T04:55:27;77.63;;;7.30;;
8514;SDS011;4295;51.024;7.000;2022-10-16T04:57:52;74.40;;;6.83;;
8514;SDS011;4295;51.024;7.000;2022-10-16T05:00:18;77.13;;;6.27;;
8514;SDS011;4295;51.024;7.000;2022-10-16T05:02:43;73.57;;;5.93;;
8514;SDS011;4295;51.024;7.000;2022-10-16T05:05:08;72.60;;;6.27;;
8514;SDS011;4295;51.024;7.000;2022-10-16T05:07:34;74.80;;;6.37;;
8514;SDS011;4295;51.024;7.000;2022-10-16T05:09:59;86.23;;;7.70;;
8514;SDS011;4295;51.024;7.000;2022-10-16T05:12:24;76.90;;;6.07;;
8514;SDS011;4295;51.024;7.000;2022-10-16T05:14:50;74.17;;;6.27;;
8514;SDS011;4295;51.024;7.000;2022-10-16T05:17:15;74.90;;;5.90;;
8514;SDS011;4295;51.024;7.000;2022-10-16T05:19:40;77.63;;;5.80;;
8514;SDS011;4295;51.024;7.000;2022-10-16T05:22:06;73.47;;;5.77;;
8514;SDS011;4295;51.024;7.000;2022-10-16T05:24:31;73.37;;;5.97;;
8514;SDS011;4295;51.024;7.000;2022-10-16T05:26:56;72.97;;;5.80;;
8514;SDS011;4295;51.024;7.000;2022-10-16T05:29:22;80.30;;;6.50;;
8514;SDS011;4295;51.024;7.000;2022-10-16T05:31:49;78.10;;;5.57;;
8514;SDS011;4295;51.024;7.000;2022-10-16T05:34:16;74.57;;;5.57;;
8514;SDS011;4295;51.024;7.000;2022-10-16T05:36:42;75.03;;;5.43;;
8514;SDS011;4295;51.024;7.000;2022-10-16T05:39:07;76.07;;;5.57;;
8514;SDS011;4295;51.024;7.000;2022-10-16T05:41:33;73.77;;;5.83;;
8514;SDS011;4295;51.024;7.000;2022-10-16T05:43:58;73.50;;;5.53;;
8514;SDS011;4295;51.024;7.000;2022-10-16T05:46:23;73.77;;;5.57;;
8514;SDS011;4295;51.024;7.000;2022-10-16T05:48:51;75.37;;;5.83;;
8514;SDS011;4295;51.024;7.000;2022-10-16T05:51:17;74.30;;;6.30;;
8514;SDS011;4295;51.024;7.000;2022-10-16T05:53:42;74.00;;;6.50;;
8514;SDS011;4295;51.024;7.000;2022-10-16T05:56:09;87.90;;;5.83;;
8514;SDS011;4295;51.024;7.000;2022-10-16T05:58:36;72.33;;;5.60;;
8514;SDS011;4295;51.024;7.000;2022-10-16T06:01:03;72.67;;;5.53;;
8514;SDS011;4295;51.024;7.000;2022-10-16T06:03:31;74.63;;;5.70;;
8514;SDS011;4295;51.024;7.000;2022-10-16T06:05:57;78.27;;;5.80;;
8514;SDS011;4295;51.024;7.000;2022-10-16T06:08:22;73.57;;;5.83;;
8514;SDS011;4295;51.024;7.000;2022-10-16T06:10:48;76.20;;;6.13;;
8514;SDS011;4295;51.024;7.000;2022-10-16T06:13:24;74.40;;;6.20;;
8514;SDS011;4295;51.024;7.000;2022-10-16T06:15:50;73.10;;;6.33;;
8514;SDS011;4295;51.024;7.000;2022-10-16T06:18:15;73.83;;;6.00;;
8514;SDS011;4295;51.024;7.000;2022-10-16T06:20:40;72.80;;;5.73;;
8514;SDS011;4295;51.024;7.000;2022-10-16T06:23:06;72.87;;;5.50;;
8514;SDS011;4295;51.024;7.000;2022-10-16T06:25:31;73.50;;;6.00;;
8514;SDS011;4295;51.024;7.000;2022-10-16T06:27:56;72.47;;;5.50;;
8514;SDS011;4295;51.024;7.000;2022-10-16T06:30:22;72.90;;;5.73;;
8514;SDS011;4295;51.024;7.000;2022-10-16T06:32:47;72.50;;;5.50;;
8514;SDS011;4295;51.024;7.000;2022-10-16T06:35:13;78.40;;;6.63;;
8514;SDS011;4295;51.024;7.000;2022-10-16T06:37:38;74.47;;;5.90;;
8514;SDS011;4295;51.024;7.000;2022-10-16T06:40:03;79.63;;;6.20;;
8514;SDS011;4295;51.024;7.000;2022-10-16T06:42:29;73.90;;;6.17;;
8514;SDS011;4295;51.024;7.000;2022-10-16T06:44:55;74.60;;;6.13;;
8514;SDS011;4295;51.024;7.000;2022-10-16T06:47:20;74.70;;;7.07;;
8514;SDS011;4295;51.024;7.000;2022-10-16T06:49:46;73.27;;;5.77;;
8514;SDS011;4295;51.024;7.000;2022-10-16T06:52:11;73.80;;;6.40;;
8514;SDS011;4295;51.024;7.000;2022-10-16T06:54:36;74.00;;;6.20;;
8514;SDS011;4295;51.024;7.000;2022-10-16T06:57:02;76.20;;;6.73;;
8514;SDS011;4295;51.024;7.000;2022-10-16T06:59:27;78.17;;;6.17;;
8514;SDS011;4295;51.024;7.000;2022-10-16T07:01:53;73.13;;;6.20;;
8514;SDS011;4295;51.024;7.000;2022-10-16T07:04:18;74.43;;;6.13;;
8514;SDS011;4295;51.024;7.000;2022-10-16T07:06:43;73.53;;;6.30;;
8514;SDS011;4295;51.024;7.000;2022-10-16T07:09:09;73.83;;;7.20;;
8514;SDS011;4295;51.024;7.000;2022-10-16T07:11:36;75.73;;;6.90;;
8514;SDS011;4295;51.024;7.000;2022-10-16T07:14:03;72.87;;;6.60;;
8514;SDS011;4295;51.024;7.000;2022-10-16T07:16:30;74.90;;;6.63;;
8514;SDS011;4295;51.024;7.000;2022-10-16T07:18:58;78.00;;;6.90;;
8514;SDS011;4295;51.024;7.000;2022-10-16T07:21:25;75.07;;;7.40;;
8514;SDS011;4295;51.024;7.000;2022-10-16T07:23:54;76.67;;;7.70;;
8514;SDS011;4295;51.024;7.000;2022-10-16T07:26:22;76.37;;;6.90;;
8514;SDS011;4295;51.024;7.000;2022-10-16T07:28:48;73.27;;;6.70;;
8514;SDS011;4295;51.024;7.000;2022-10-16T07:31:14;74.30;;;6.83;;
8514;SDS011;4295;51.024;7.000;2022-10-16T07:33:40;73.87;;;7.10;;
8514;SDS011;4295;51.024;7.000;2022-10-16T07:36:09;72.47;;;6.47;;
8514;SDS011;4295;51.024;7.000;2022-10-16T07:38:35;73.20;;;6.63;;
8514;SDS011;4295;51.024;7.000;2022-10-16T07:41:02;74.50;;;6.80;;
8514;SDS011;4295;51.024;7.000;2022-10-16T07:43:29;75.93;;;6.40;;
8514;SDS011;4295;51.024;7.000;2022-10-16T07:45:55;73.93;;;6.30;;
8514;SDS011;4295;51.024;7.000;2022-10-16T07:48:21;75.13;;;5.83;;
8514;SDS011;4295;51.024;7.000;2022-10-16T07:50:48;74.47;;;6.70;;
8514;SDS011;4295;51.024;7.000;2022-10-16T07:53:13;75.03;;;6.30;;
8514;SDS011;4295;51.024;7.000;2022-10-16T07:55:39;74.40;;;6.97;;
8514;SDS011;4295;51.024;7.000;2022-10-16T07:58:05;72.60;;;6.33;;
8514;SDS011;4295;51.024;7.000;2022-10-16T08:00:31;74.77;;;6.13;;
8514;SDS011;4295;51.024;7.000;2022-10-16T08:02:56;72.17;;;6.20;;
8514;SDS011;4295;51.024;7.000;2022-10-16T08:05:25;76.13;;;5.97;;
8514;SDS011;4295;51.024;7.000;2022-10-16T08:07:52;75.60;;;6.50;;
8514;SDS011;4295;51.024;7.000;2022-10-16T08:10:17;74.83;;;6.33;;
8514;SDS011;4295;51.024;7.000;2022-10-16T08:12:44;78.47;;;6.60;;
8514;SDS011;4295;51.024;7.000;2022-10-16T08:15:09;72.90;;;6.07;;
8514;SDS011;4295;51.024;7.000;2022-10-16T08:17:35;72.47;;;5.90;;
8514;SDS011;4295;51.024;7.000;2022-10-16T08:20:00;75.10;;;6.20;;
8514;SDS011;4295;51.024;7.000;2022-10-16T08:22:26;73.47;;;6.13;;
8514;SDS011;4295;51.024;7.000;2022-10-16T08:24:52;74.50;;;6.47;;
8514;SDS011;4295;51.024;7.000;2022-10-16T08:27:17;72.53;;;5.90;;
8514;SDS011;4295;51.024;7.000;2022-10-16T08:29:42;74.60;;;6.30;;
8514;SDS011;4295;51.024;7.000;2022-10-16T08:32:08;72.70;;;5.90;;
8514;SDS011;4295;51.024;7.000;2022-10-16T08:34:33;71.90;;;6.17;;
8514;SDS011;4295;51.024;7.000;2022-10-16T08:36:59;74.07;;;5.30;;
8514;SDS011;4295;51.024;7.000;2022-10-16T08:39:25;72.30;;;5.57;;
8514;SDS011;4295;51.024;7.000;2022-10-16T08:50:02;71.57;;;5.33;;
8514;SDS011;4295;51.024;7.000;2022-10-16T08:52:34;72.40;;;5.50;;
8514;SDS011;4295;51.024;7.000;2022-10-16T08:55:04;72.20;;;5.60;;
8514;SDS011;4295;51.024;7.000;2022-10-16T08:57:30;72.50;;;5.50;;
8514;SDS011;4295;51.024;7.000;2022-10-16T08:59:57;72.37;;;5.27;;
8514;SDS011;4295;51.024;7.000;2022-10-16T09:02:40;71.67;;;4.60;;
8514;SDS011;4295;51.024;7.000;2022-10-16T09:08:14;72.20;;;5.47;;
8514;SDS011;4295;51.024;7.000;2022-10-16T09:11:17;74.80;;;5.80;;
8514;SDS011;4295;51.024;7.000;2022-10-16T09:14:12;71.57;;;5.30;;
8514;SDS011;4295;51.024;7.000;2022-10-16T09:17:03;73.07;;;5.23;;
8514;SDS011;4295;51.024;7.000;2022-10-16T09:19:45;71.70;;;5.90;;
8514;SDS011;4295;51.024;7.000;2022-10-16T09:22:16;73.10;;;6.10;;
8514;SDS011;4295;51.024;7.000;2022-10-16T09:24:42;73.87;;;5.60;;
8514;SDS011;4295;51.024;7.000;2022-10-16T09:27:10;72.20;;;5.70;;
8514;SDS011;4295;51.024;7.000;2022-10-16T09:29:36;76.60;;;5.90;;
8514;SDS011;4295;51.024;7.000;2022-10-16T09:32:35;72.27;;;4.63;;
8514;SDS011;4295;51.024;7.000;2022-10-16T09:34:54;71.30;;;4.70;;
8514;SDS011;4295;51.024;7.000;2022-10-16T09:37:23;70.60;;;5.40;;
8514;SDS011;4295;51.024;7.000;2022-10-16T09:39:51;70.43;;;5.00;;
8514;SDS011;4295;51.024;7.000;2022-10-16T09:42:18;71.63;;;4.50;;
8514;SDS011;4295;51.024;7.000;2022-10-16T09:44:51;72.83;;;4.50;;
8514;SDS011;4295;51.024;7.000;2022-10-16T09:47:19;71.47;;;3.93;;
8514;SDS011;4295;51.024;7.000;2022-10-16T09:50:18;70.60;;;4.23;;
8514;SDS011;4295;51.024;7.000;2022-10-16T09:53:03;72.30;;;4.37;;
8514;SDS011;4295;51.024;7.000;2022-10-16T09:55:29;72.50;;;3.83;;
8514;SDS011;4295;51.024;7.000;2022-10-16T09:57:55;71.77;;;4.27;;
8514;SDS011;4295;51.024;7.000;2022-10-16T10:00:21;70.37;;;3.97;;
8514;SDS011;4295;51.024;7.000;2022-10-16T10:02:47;72.57;;;4.43;;
8514;SDS011;4295;51.024;7.000;2022-10-16T10:05:17;69.87;;;4.17;;
8514;SDS011;4295;51.024;7.000;2022-10-16T10:07:53;72.40;;;4.10;;
8514;SDS011;4295;51.024;7.000;2022-10-16T10:10:28;69.73;;;4.00;;
8514;SDS011;4295;51.024;7.000;2022-10-16T10:12:55;71.67;;;4.83;;
8514;SDS011;4295;51.024;7.000;2022-10-16T10:15:22;71.00;;;3.90;;
8514;SDS011;4295;51.024;7.000;2022-10-16T10:22:59;70.30;;;3.60;;
8514;SDS011;4295;51.024;7.000;2022-10-16T10:25:36;68.70;;;3.53;;
8514;SDS011;4295;51.024;7.000;2022-10-16T10:28:17;69.17;;;3.83;;
8514;SDS011;4295;51.024;7.000;2022-10-16T10:36:46;71.63;;;4.00;;
8514;SDS011;4295;51.024;7.000;2022-10-16T10:52:43;70.00;;;4.17;;
8514;SDS011;4295;51.024;7.000;2022-10-16T11:00:42;71.70;;;4.20;;
8514;SDS011;4295;51.024;7.000;2022-10-16T11:05:52;69.73;;;3.90;;
8514;SDS011;4295;51.024;7.000;2022-10-16T11:08:37;74.10;;;4.30;;
8514;SDS011;4295;51.024;7.000;2022-10-16T11:11:06;70.23;;;3.70;;
8514;SDS011;4295;51.024;7.000;2022-10-16T11:13:54;68.57;;;4.17;;
8514;SDS011;4295;51.024;7.000;2022-10-16T11:18:56;70.43;;;3.63;;
8514;SDS011;4295;51.024;7.000;2022-10-16T11:21:46;69.37;;;4.00;;
8514;SDS011;4295;51.024;7.000;2022-10-16T11:24:19;70.37;;;3.87;;
8514;SDS011;4295;51.024;7.000;2022-10-16T11:26:48;72.10;;;4.20;;
8514;SDS011;4295;51.024;7.000;2022-10-16T11:29:18;69.90;;;4.33;;
8514;SDS011;4295;51.024;7.000;2022-10-16T11:31:53;71.90;;;4.30;;
8514;SDS011;4295;51.024;7.000;2022-10-16T11:39:29;68.20;;;4.40;;
8514;SDS011;4295;51.024;7.000;2022-10-16T11:56:05;72.50;;;4.73;;
8514;SDS011;4295;51.024;7.000;2022-10-16T12:09:28;69.50;;;4.77;;
8514;SDS011;4295;51.024;7.000;2022-10-16T12:11:56;69.70;;;4.50;;
8514;SDS011;4295;51.024;7.000;2022-10-16T12:19:17;69.40;;;4.53;;
8514;SDS011;4295;51.024;7.000;2022-10-16T12:21:43;68.67;;;4.40;;
8514;SDS011;4295;51.024;7.000;2022-10-16T12:26:53;68.70;;;3.70;;
8514;SDS011;4295;51.024;7.000;2022-10-16T12:31:53;68.90;;;4.37;;
8514;SDS011;4295;51.024;7.000;2022-10-16T12:34:21;70.97;;;4.00;;
8514;SDS011;4295;51.024;7.000;2022-10-16T12:36:47;69.07;;;4.20;;
8514;SDS011;4295;51.024;7.000;2022-10-16T12:39:20;68.97;;;4.10;;
8514;SDS011;4295;51.024;7.000;2022-10-16T12:42:17;71.23;;;4.60;;
8514;SDS011;4295;51.024;7.000;2022-10-16T12:44:53;76.73;;;3.93;;
8514;SDS011;4295;51.024;7.000;2022-10-16T12:47:20;69.10;;;3.93;;
8514;SDS011;4295;51.024;7.000;2022-10-16T12:49:48;69.87;;;4.17;;
8514;SDS011;4295;51.024;7.000;2022-10-16T12:54:59;68.87;;;4.53;;
8514;SDS011;4295;51.024;7.000;2022-10-16T13:22:35;70.90;;;4.10;;
8514;SDS011;4295;51.024;7.000;2022-10-16T13:24:45;69.70;;;4.30;;
8514;SDS011;4295;51.024;7.000;2022-10-16T13:29:54;69.17;;;4.07;;
8514;SDS011;4295;51.024;7.000;2022-10-16T13:32:26;71.10;;;4.27;;
8514;SDS011;4295;51.024;7.000;2022-10-16T13:34:52;68.67;;;3.80;;
8514;SDS011;4295;51.024;7.000;2022-10-16T13:37:19;69.43;;;4.23;;
8514;SDS011;4295;51.024;7.000;2022-10-16T13:39:46;69.37;;;4.43;;
8514;SDS011;4295;51.024;7.000;2022-10-16T13:42:13;71.50;;;4.47;;
8514;SDS011;4295;51.024;7.000;2022-10-16T13:44:50;69.27;;;4.57;;
8514;SDS011;4295;51.024;7.000;2022-10-16T13:47:19;71.20;;;4.67;;
8514;SDS011;4295;51.024;7.000;2022-10-16T13:49:46;69.93;;;5.03;;
8514;SDS011;4295;51.024;7.000;2022-10-16T13:52:16;69.37;;;4.70;;
8514;SDS011;4295;51.024;7.000;2022-10-16T13:54:44;70.47;;;5.03;;
8514;SDS011;4295;51.024;7.000;2022-10-16T13:57:14;70.00;;;4.97;;
8514;SDS011;4295;51.024;7.000;2022-10-16T13:59:40;70.20;;;4.60;;
8514;SDS011;4295;51.024;7.000;2022-10-16T14:04:52;87.43;;;4.77;;
8514;SDS011;4295;51.024;7.000;2022-10-16T14:07:29;71.70;;;4.50;;
8514;SDS011;4295;51.024;7.000;2022-10-16T14:09:58;69.50;;;4.30;;
8514;SDS011;4295;51.024;7.000;2022-10-16T14:12:26;71.00;;;3.80;;
8514;SDS011;4295;51.024;7.000;2022-10-16T14:14:52;68.40;;;3.83;;
8514;SDS011;4295;51.024;7.000;2022-10-16T14:19:47;70.33;;;3.90;;
8514;SDS011;4295;51.024;7.000;2022-10-16T14:24:53;70.37;;;3.77;;
8514;SDS011;4295;51.024;7.000;2022-10-16T14:27:36;71.20;;;3.70;;
8514;SDS011;4295;51.024;7.000;2022-10-16T14:30:10;69.40;;;3.73;;
8514;SDS011;4295;51.024;7.000;2022-10-16T14:32:37;69.97;;;3.97;;
8514;SDS011;4295;51.024;7.000;2022-10-16T14:35:21;68.97;;;3.77;;
8514;SDS011;4295;51.024;7.000;2022-10-16T14:37:50;69.10;;;3.63;;
8514;SDS011;4295;51.024;7.000;2022-10-16T14:40:17;71.40;;;4.30;;
8514;SDS011;4295;51.024;7.000;2022-10-16T14:42:43;69.73;;;3.90;;
8514;SDS011;4295;51.024;7.000;2022-10-16T14:45:10;71.70;;;4.00;;
8514;SDS011;4295;51.024;7.000;2022-10-16T14:47:36;70.37;;;3.70;;
8514;SDS011;4295;51.024;7.000;2022-10-16T14:50:13;70.77;;;4.10;;
8514;SDS011;4295;51.024;7.000;2022-10-16T14:52:39;69.77;;;4.30;;
8514;SDS011;4295;51.024;7.000;2022-10-16T14:55:04;69.67;;;4.43;;
8514;SDS011;4295;51.024;7.000;2022-10-16T14:57:31;68.70;;;3.80;;
8514;SDS011;4295;51.024;7.000;2022-10-16T15:00:00;72.53;;;6.50;;
8514;SDS011;4295;51.024;7.000;2022-10-16T15:02:33;69.17;;;4.30;;
8514;SDS011;4295;51.024;7.000;2022-10-16T15:05:07;71.80;;;5.00;;
8514;SDS011;4295;51.024;7.000;2022-10-16T15:07:38;69.47;;;4.83;;
8514;SDS011;4295;51.024;7.000;2022-10-16T15:10:03;70.00;;;4.60;;
8514;SDS011;4295;51.024;7.000;2022-10-16T15:12:29;70.27;;;4.03;;
8514;SDS011;4295;51.024;7.000;2022-10-16T15:14:54;72.43;;;6.40;;
8514;SDS011;4295;51.024;7.000;2022-10-16T15:17:19;69.97;;;4.63;;
8514;SDS011;4295;51.024;7.000;2022-10-16T15:19:45;71.13;;;5.20;;
8514;SDS011;4295;51.024;7.000;2022-10-16T15:22:11;69.77;;;5.10;;
8514;SDS011;4295;51.024;7.000;2022-10-16T15:24:37;70.57;;;4.13;;
8514;SDS011;4295;51.024;7.000;2022-10-16T15:27:02;68.67;;;4.87;;
8514;SDS011;4295;51.024;7.000;2022-10-16T15:29:28;69.30;;;4.80;;
8514;SDS011;4295;51.024;7.000;2022-10-16T15:31:53;70.73;;;4.50;;
8514;SDS011;4295;51.024;7.000;2022-10-16T15:34:18;69.67;;;5.00;;
8514;SDS011;4295;51.024;7.000;2022-10-16T15:36:44;71.27;;;5.00;;
8514;SDS011;4295;51.024;7.000;2022-10-16T15:39:12;72.23;;;5.03;;
8514;SDS011;4295;51.024;7.000;2022-10-16T15:41:39;71.90;;;4.67;;
8514;SDS011;4295;51.024;7.000;2022-10-16T15:44:04;69.60;;;4.80;;
8514;SDS011;4295;51.024;7.000;2022-10-16T15:46:30;70.80;;;5.10;;
8514;SDS011;4295;51.024;7.000;2022-10-16T15:48:56;70.90;;;5.40;;
8514;SDS011;4295;51.024;7.000;2022-10-16T15:51:23;70.93;;;5.77;;
8514;SDS011;4295;51.024;7.000;2022-10-16T15:53:49;70.37;;;5.70;;
8514;SDS011;4295;51.024;7.000;2022-10-16T15:56:16;69.27;;;5.73;;
8514;SDS011;4295;51.024;7.000;2022-10-16T15:58:43;71.10;;;6.03;;
8514;SDS011;4295;51.024;7.000;2022-10-16T16:01:08;76.67;;;6.03;;
8514;SDS011;4295;51.024;7.000;2022-10-16T16:03:35;71.77;;;5.83;;
8514;SDS011;4295;51.024;7.000;2022-10-16T16:06:06;71.70;;;5.80;;
8514;SDS011;4295;51.024;7.000;2022-10-16T16:08:33;70.97;;;6.07;;
8514;SDS011;4295;51.024;7.000;2022-10-16T16:10:59;70.70;;;5.83;;
8514;SDS011;4295;51.024;7.000;2022-10-16T16:13:25;71.33;;;5.67;;
8514;SDS011;4295;51.024;7.000;2022-10-16T16:15:51;72.80;;;6.27;;
8514;SDS011;4295;51.024;7.000;2022-10-16T16:18:16;72.07;;;6.00;;
8514;SDS011;4295;51.024;7.000;2022-10-16T16:20:41;71.50;;;5.70;;
8514;SDS011;4295;51.024;7.000;2022-10-16T16:23:07;73.57;;;4.97;;
8514;SDS011;4295;51.024;7.000;2022-10-16T16:25:32;72.57;;;5.33;;
8514;SDS011;4295;51.024;7.000;2022-10-16T16:27:57;72.27;;;5.70;;
8514;SDS011;4295;51.024;7.000;2022-10-16T16:30:22;72.00;;;6.20;;
8514;SDS011;4295;51.024;7.000;2022-10-16T16:32:48;71.37;;;4.40;;
8514;SDS011;4295;51.024;7.000;2022-10-16T16:35:13;73.37;;;4.70;;
8514;SDS011;4295;51.024;7.000;2022-10-16T16:37:39;72.10;;;4.60;;
8514;SDS011;4295;51.024;7.000;2022-10-16T16:40:04;70.80;;;4.63;;
8514;SDS011;4295;51.024;7.000;2022-10-16T16:42:30;73.17;;;4.70;;
8514;SDS011;4295;51.024;7.000;2022-10-16T16:44:55;72.60;;;4.57;;
8514;SDS011;4295;51.024;7.000;2022-10-16T16:47:21;70.97;;;4.90;;
8514;SDS011;4295;51.024;7.000;2022-10-16T16:49:46;71.33;;;4.53;;
8514;SDS011;4295;51.024;7.000;2022-10-16T16:52:12;70.90;;;4.70;;
8514;SDS011;4295;51.024;7.000;2022-10-16T16:54:38;70.50;;;5.00;;
8514;SDS011;4295;51.024;7.000;2022-10-16T16:57:03;74.60;;;4.70;;
8514;SDS011;4295;51.024;7.000;2022-10-16T16:59:29;73.73;;;4.77;;
8514;SDS011;4295;51.024;7.000;2022-10-16T17:01:57;70.83;;;4.70;;
8514;SDS011;4295;51.024;7.000;2022-10-16T17:04:23;70.80;;;4.50;;
8514;SDS011;4295;51.024;7.000;2022-10-16T17:06:49;72.57;;;4.77;;
8514;SDS011;4295;51.024;7.000;2022-10-16T17:09:14;72.30;;;5.17;;
8514;SDS011;4295;51.024;7.000;2022-10-16T17:11:40;71.67;;;5.13;;
8514;SDS011;4295;51.024;7.000;2022-10-16T17:14:07;73.23;;;5.07;;
8514;SDS011;4295;51.024;7.000;2022-10-16T17:16:34;70.70;;;4.13;;
8514;SDS011;4295;51.024;7.000;2022-10-16T17:19:02;74.90;;;4.00;;
8514;SDS011;4295;51.024;7.000;2022-10-16T17:21:29;75.00;;;4.30;;
8514;SDS011;4295;51.024;7.000;2022-10-16T17:23:55;71.90;;;4.27;;
8514;SDS011;4295;51.024;7.000;2022-10-16T17:26:21;72.10;;;4.97;;
8514;SDS011;4295;51.024;7.000;2022-10-16T17:28:50;71.77;;;4.40;;
8514;SDS011;4295;51.024;7.000;2022-10-16T17:31:18;71.27;;;4.33;;
8514;SDS011;4295;51.024;7.000;2022-10-16T17:33:45;70.77;;;4.63;;
8514;SDS011;4295;51.024;7.000;2022-10-16T17:36:11;72.13;;;4.70;;